createdAt,value
2019-02-08T00:01:46.872Z,0.30
2019-02-08T00:04:16.407Z,0.40
2019-02-08T00:06:46.020Z,0.50
2019-02-08T00:09:15.532Z,0.60
2019-02-08T00:11:45.085Z,0.70
2019-02-08T00:14:14.609Z,0.70
2019-02-08T00:16:44.236Z,0.80
2019-02-08T00:19:13.795Z,0.90
2019-02-08T00:21:43.480Z,0.90
2019-02-08T00:24:12.967Z,1.00
2019-02-08T00:26:42.581Z,1.00
2019-02-08T00:29:12.229Z,1.10
2019-02-08T00:31:41.751Z,1.10
2019-02-08T00:34:11.287Z,1.20
2019-02-08T00:36:40.925Z,1.20
2019-02-08T00:39:12.134Z,1.30
2019-02-08T00:41:41.732Z,1.30
2019-02-08T00:44:12.486Z,1.40
2019-02-08T00:46:42.043Z,1.40
2019-02-08T00:49:11.601Z,1.50
2019-02-08T00:51:41.209Z,1.50
2019-02-08T00:54:10.733Z,1.50
2019-02-08T00:56:40.284Z,1.60
2019-02-08T00:59:10.156Z,1.50
2019-02-08T01:01:39.734Z,1.60
2019-02-08T01:04:09.307Z,1.60
2019-02-08T01:06:38.842Z,1.60
2019-02-08T01:09:09.907Z,1.60
2019-02-08T01:11:39.565Z,1.60
2019-02-08T01:14:09.496Z,1.60
2019-02-08T01:16:39.193Z,1.60
2019-02-08T01:19:08.855Z,1.60
2019-02-08T01:21:38.503Z,1.60
2019-02-08T01:24:08.210Z,1.60
2019-02-08T01:26:37.762Z,1.60
2019-02-08T01:29:07.390Z,1.70
2019-02-08T01:31:36.902Z,1.70
2019-02-08T01:34:06.447Z,1.70
2019-02-08T01:36:35.949Z,1.60
2019-02-08T01:39:08.915Z,1.60
2019-02-08T01:41:38.485Z,1.60
2019-02-08T01:44:08.047Z,1.70
2019-02-08T01:46:37.585Z,1.70
2019-02-08T01:49:07.112Z,1.70
2019-02-08T01:51:36.619Z,1.70
2019-02-08T01:54:06.420Z,1.70
2019-02-08T01:56:35.951Z,1.70
2019-02-08T01:59:06.673Z,1.70
2019-02-08T02:01:36.184Z,1.70
2019-02-08T02:04:06.198Z,1.70
2019-02-08T02:06:35.791Z,1.70
2019-02-08T02:09:08.117Z,1.70
2019-02-08T02:11:37.670Z,1.70
2019-02-08T02:14:07.333Z,1.70
2019-02-08T02:16:37.000Z,1.60
2019-02-08T02:19:06.750Z,1.60
2019-02-08T02:21:36.663Z,1.50
2019-02-08T02:24:06.174Z,1.50
2019-02-08T02:26:36.194Z,1.50
2019-02-08T02:29:05.893Z,1.50
2019-02-08T02:31:35.402Z,1.60
2019-02-08T02:34:05.046Z,1.50
2019-02-08T02:36:34.616Z,1.50
2019-02-08T02:39:05.854Z,1.50
2019-02-08T02:41:35.563Z,1.50
2019-02-08T02:44:05.065Z,1.50
2019-02-08T02:46:34.617Z,1.50
2019-02-08T02:49:04.264Z,1.50
2019-02-08T02:51:33.878Z,1.50
2019-02-08T02:54:04.963Z,1.50
2019-02-08T02:56:34.762Z,1.50
2019-02-08T02:59:05.019Z,1.50
2019-02-08T03:01:34.617Z,1.50
2019-02-08T03:04:04.890Z,1.50
2019-02-08T03:06:34.469Z,1.50
2019-02-08T03:09:05.644Z,1.60
2019-02-08T03:11:35.147Z,1.60
2019-02-08T03:14:05.051Z,1.60
2019-02-08T03:16:34.618Z,1.60
2019-02-08T03:19:04.290Z,1.70
2019-02-08T03:21:33.920Z,1.80
2019-02-08T03:24:03.709Z,1.80
2019-02-08T03:26:33.267Z,2.00
2019-02-08T03:29:03.142Z,2.10
2019-02-08T03:31:32.653Z,2.10
2019-02-08T03:34:02.349Z,2.10
2019-02-08T03:36:31.874Z,2.20
2019-02-08T03:39:01.366Z,2.20
2019-02-08T03:41:31.271Z,2.30
2019-02-08T03:44:00.806Z,2.40
2019-02-08T03:46:30.684Z,2.40
2019-02-08T03:49:00.219Z,2.40
2019-02-08T03:51:30.135Z,2.40
2019-02-08T03:53:59.625Z,2.40
2019-02-08T03:56:29.271Z,2.40
2019-02-08T03:58:58.788Z,2.50
2019-02-08T04:01:28.286Z,2.50
2019-02-08T04:04:13.426Z,2.40
2019-02-08T04:06:42.973Z,2.50
2019-02-08T04:09:12.601Z,2.50
2019-02-08T04:11:42.333Z,2.50
2019-02-08T04:14:11.851Z,2.50
2019-02-08T04:16:41.641Z,2.50
2019-02-08T04:19:11.187Z,2.50
2019-02-08T04:21:40.688Z,2.50
2019-02-08T04:24:10.482Z,2.50
2019-02-08T04:26:39.997Z,2.50
2019-02-08T04:29:09.767Z,2.50
2019-02-08T04:31:39.274Z,2.50
2019-02-08T04:34:08.798Z,2.50
2019-02-08T04:36:38.430Z,2.40
2019-02-08T04:39:09.074Z,2.50
2019-02-08T04:41:38.888Z,2.40
2019-02-08T04:44:08.460Z,2.40
2019-02-08T04:46:38.362Z,2.40
2019-02-08T04:49:07.869Z,2.50
2019-02-08T04:51:37.489Z,2.50
2019-02-08T04:54:07.083Z,2.50
2019-02-08T04:56:36.600Z,2.50
2019-02-08T04:59:06.287Z,2.50
2019-02-08T05:01:35.899Z,2.50
2019-02-08T05:04:05.575Z,2.60
2019-02-08T05:06:35.111Z,2.60
2019-02-08T05:09:07.550Z,2.60
2019-02-08T05:11:37.298Z,2.60
2019-02-08T05:14:07.052Z,2.60
2019-02-08T05:16:36.604Z,2.60
2019-02-08T05:19:07.328Z,2.60
2019-02-08T05:21:37.233Z,2.70
2019-02-08T05:24:06.778Z,2.70
2019-02-08T05:26:36.591Z,2.70
2019-02-08T05:29:06.203Z,2.70
2019-02-08T05:31:35.807Z,2.70
2019-02-08T05:34:06.131Z,2.70
2019-02-08T05:36:35.661Z,2.70
2019-02-08T05:39:09.146Z,2.70
2019-02-08T05:41:38.740Z,2.80
2019-02-08T05:44:08.332Z,2.70
2019-02-08T05:46:38.214Z,2.70
2019-02-08T05:49:07.764Z,2.70
2019-02-08T05:51:37.600Z,2.70
2019-02-08T05:54:07.112Z,2.70
2019-02-08T05:56:36.690Z,2.70
2019-02-08T05:59:06.591Z,2.70
2019-02-08T06:01:36.155Z,2.70
2019-02-08T06:04:06.084Z,2.70
2019-02-08T06:06:35.723Z,2.70
2019-02-08T06:09:08.740Z,2.80
2019-02-08T06:11:38.277Z,2.70
2019-02-08T06:14:08.005Z,2.70
2019-02-08T06:16:37.572Z,2.70
2019-02-08T06:19:07.212Z,2.70
2019-02-08T06:21:36.889Z,2.80
2019-02-08T06:24:06.508Z,2.80
2019-02-08T06:26:36.097Z,2.80
2019-02-08T06:29:05.879Z,2.80
2019-02-08T06:31:35.604Z,2.80
2019-02-08T06:34:05.245Z,2.90
2019-02-08T06:36:34.732Z,2.90
2019-02-08T06:39:07.630Z,2.80
2019-02-08T06:41:37.161Z,2.90
2019-02-08T06:44:06.751Z,2.90
2019-02-08T06:46:36.313Z,2.90
2019-02-08T06:49:06.044Z,2.90
2019-02-08T06:51:36.290Z,3.00
2019-02-08T06:54:05.907Z,3.00
2019-02-08T06:57:09.837Z,3.10
2019-02-08T06:59:46.049Z,3.10
2019-02-08T07:02:23.855Z,3.10
2019-02-08T07:05:05.984Z,3.20
2019-02-08T07:07:50.423Z,3.20
2019-02-08T07:10:45.299Z,3.20
2019-02-08T07:13:33.789Z,3.20
2019-02-08T07:16:31.090Z,3.30
2019-02-08T07:19:22.879Z,3.30
2019-02-08T07:22:17.698Z,3.40
2019-02-08T07:24:52.986Z,3.40
2019-02-08T07:27:31.860Z,3.40
2019-02-08T07:30:20.469Z,3.40
2019-02-08T07:33:07.847Z,3.50
2019-02-08T07:35:56.411Z,3.50
2019-02-08T07:38:45.637Z,3.50
2019-02-08T07:41:52.655Z,3.50
2019-02-08T07:44:40.674Z,3.50
2019-02-08T07:47:28.007Z,3.60
2019-02-08T07:50:13.219Z,3.60
2019-02-08T07:52:53.536Z,3.60
2019-02-08T07:55:51.846Z,3.60
2019-02-08T07:58:46.283Z,3.70
2019-02-08T08:01:35.844Z,3.60
2019-02-08T08:04:29.147Z,3.60
2019-02-08T08:07:11.768Z,3.60
2019-02-08T08:10:15.437Z,3.60
2019-02-08T08:13:04.155Z,3.50
2019-02-08T08:15:56.127Z,3.60
2019-02-08T08:18:44.595Z,3.60
2019-02-08T08:21:53.945Z,3.70
2019-02-08T08:24:47.314Z,3.70
2019-02-08T08:27:45.913Z,3.90
2019-02-08T08:30:40.761Z,4.10
2019-02-08T08:33:23.644Z,4.20
2019-02-08T08:36:29.603Z,4.40
2019-02-08T08:39:49.221Z,4.50
2019-02-08T08:43:11.793Z,4.60
2019-02-08T08:46:12.781Z,4.70
2019-02-08T08:49:16.080Z,4.80
2019-02-08T08:52:26.278Z,4.70
2019-02-08T08:55:58.340Z,4.60
2019-02-08T08:59:06.614Z,4.60
2019-02-08T09:02:09.127Z,4.40
2019-02-08T09:05:38.542Z,4.40
2019-02-08T09:09:04.485Z,4.40
2019-02-08T09:11:50.344Z,4.40
2019-02-08T09:15:09.918Z,4.40
2019-02-08T09:18:05.346Z,4.30
2019-02-08T09:21:09.206Z,4.30
2019-02-08T09:24:11.367Z,4.30
2019-02-08T09:27:34.300Z,4.40
2019-02-08T09:30:17.080Z,4.40
2019-02-08T09:33:35.178Z,4.50
2019-02-08T09:36:32.760Z,4.60
2019-02-08T09:39:38.378Z,4.60
2019-02-08T09:43:00.077Z,4.80
2019-02-08T09:46:08.794Z,4.90
2019-02-08T09:49:07.289Z,4.90
2019-02-08T09:52:23.860Z,5.00
2019-02-08T09:55:23.246Z,5.00
2019-02-08T09:58:31.020Z,5.10
2019-02-08T10:01:57.048Z,5.20
2019-02-08T10:05:27.056Z,5.20
2019-02-08T10:09:08.493Z,5.30
2019-02-08T10:12:03.713Z,5.30
2019-02-08T10:14:59.766Z,5.30
2019-02-08T10:18:15.458Z,5.40
2019-02-08T10:21:27.673Z,5.40
2019-02-08T10:24:34.063Z,5.50
2019-02-08T10:27:38.679Z,5.50
2019-02-08T10:30:53.530Z,5.60
2019-02-08T10:34:04.844Z,5.60
2019-02-08T10:37:02.819Z,5.60
2019-02-08T10:40:30.622Z,5.70
2019-02-08T10:43:50.288Z,5.70
2019-02-08T10:46:51.078Z,5.70
2019-02-08T10:50:29.153Z,5.70
2019-02-08T10:53:34.121Z,5.60
2019-02-08T10:56:41.975Z,5.70
2019-02-08T10:59:51.151Z,5.80
2019-02-08T11:02:43.572Z,5.90
2019-02-08T11:05:53.932Z,6.00
2019-02-08T11:08:53.566Z,6.10
2019-02-08T11:11:58.193Z,6.20
2019-02-08T11:15:26.817Z,6.30
2019-02-08T11:18:49.493Z,6.30
2019-02-08T11:21:19.043Z,6.20
2019-02-08T11:23:48.712Z,6.20
2019-02-08T11:26:23.046Z,6.20
2019-02-08T11:28:49.423Z,6.20
2019-02-08T11:31:18.969Z,6.20
2019-02-08T11:33:48.686Z,6.20
2019-02-08T11:36:18.198Z,6.20
2019-02-08T11:38:47.949Z,6.20
2019-02-08T11:41:17.736Z,6.20
2019-02-08T11:43:47.672Z,6.20
2019-02-08T11:46:17.300Z,6.30
2019-02-08T11:48:47.205Z,6.20
2019-02-08T11:51:17.060Z,6.20
2019-02-08T11:53:46.560Z,6.30
2019-02-08T11:56:16.905Z,6.20
2019-02-08T11:58:46.376Z,6.20
2019-02-08T12:01:16.010Z,6.30
2019-02-08T12:03:45.694Z,6.30
2019-02-08T12:06:15.675Z,6.30
2019-02-08T12:08:45.519Z,6.40
2019-02-08T12:11:15.005Z,6.40
2019-02-08T12:13:44.591Z,6.50
2019-02-08T12:16:14.307Z,6.50
2019-02-08T12:18:43.818Z,6.60
2019-02-08T12:21:13.587Z,6.60
2019-02-08T12:23:44.909Z,6.60
2019-02-08T12:26:14.410Z,6.60
2019-02-08T12:28:44.090Z,6.60
2019-02-08T12:31:13.635Z,6.70
2019-02-08T12:33:43.168Z,6.70
2019-02-08T12:36:13.038Z,6.70
2019-02-08T12:38:42.580Z,6.70
2019-02-08T12:41:13.036Z,6.70
2019-02-08T12:43:42.686Z,6.70
2019-02-08T12:46:12.252Z,6.70
2019-02-08T12:48:41.954Z,6.70
2019-02-08T12:51:11.510Z,6.70
2019-02-08T12:53:41.167Z,6.80
2019-02-08T12:56:10.719Z,6.80
2019-02-08T12:58:40.239Z,6.80
2019-02-08T13:01:10.208Z,6.80
2019-02-08T13:03:40.229Z,6.80
2019-02-08T13:06:10.276Z,6.80
2019-02-08T13:08:39.892Z,6.80
2019-02-08T13:11:10.059Z,6.80
2019-02-08T13:13:39.608Z,6.80
2019-02-08T13:16:09.341Z,6.70
2019-02-08T13:18:38.850Z,6.70
2019-02-08T13:21:08.575Z,6.70
2019-02-08T13:23:38.127Z,6.70
2019-02-08T13:26:07.804Z,6.70
2019-02-08T13:28:37.320Z,6.60
2019-02-08T13:31:06.965Z,6.60
2019-02-08T13:33:36.672Z,6.60
2019-02-08T13:36:12.857Z,6.60
2019-02-08T13:38:42.345Z,6.60
2019-02-08T13:41:12.215Z,6.50
2019-02-08T13:43:41.833Z,6.50
2019-02-08T13:46:11.770Z,6.50
2019-02-08T13:48:41.289Z,6.40
2019-02-08T13:51:11.057Z,6.40
2019-02-08T13:53:40.581Z,6.30
2019-02-08T13:56:10.397Z,6.30
2019-02-08T13:58:39.969Z,6.20
2019-02-08T14:01:09.654Z,6.20
2019-02-08T14:03:39.589Z,6.20
2019-02-08T14:06:09.495Z,6.20
2019-02-08T14:08:39.048Z,6.20
2019-02-08T14:11:08.611Z,6.20
2019-02-08T14:13:40.634Z,6.20
2019-02-08T14:16:09.383Z,6.20
2019-02-08T14:18:39.039Z,6.10
2019-02-08T14:21:08.602Z,6.10
2019-02-08T14:23:38.102Z,6.00
2019-02-08T14:26:07.631Z,6.00
2019-02-08T14:28:37.189Z,5.90
2019-02-08T14:31:06.785Z,5.80
2019-02-08T14:33:37.096Z,5.80
2019-02-08T14:36:08.043Z,5.70
2019-02-08T14:38:37.731Z,5.70
2019-02-08T14:41:07.949Z,5.60
2019-02-08T14:43:37.731Z,5.60
2019-02-08T14:46:07.276Z,5.50
2019-02-08T14:48:36.802Z,5.50
2019-02-08T14:51:06.352Z,5.50
2019-02-08T14:53:36.024Z,5.40
2019-02-08T14:56:05.659Z,5.40
2019-02-08T14:58:35.181Z,5.30
2019-02-08T15:01:04.876Z,5.20
2019-02-08T15:03:34.396Z,5.20
2019-02-08T15:06:04.529Z,5.10
2019-02-08T15:08:34.057Z,5.00
2019-02-08T15:11:03.631Z,4.90
2019-02-08T15:13:33.157Z,4.90
2019-02-08T15:16:02.673Z,4.70
2019-02-08T15:18:32.358Z,4.70
2019-02-08T15:21:01.870Z,4.60
2019-02-08T15:23:31.535Z,4.50
2019-02-08T15:26:01.062Z,4.40
2019-02-08T15:28:30.628Z,4.20
2019-02-08T15:31:00.469Z,4.20
2019-02-08T15:33:30.042Z,4.10
2019-02-08T15:35:59.655Z,4.00
2019-02-08T15:38:29.649Z,3.90
2019-02-08T15:41:00.382Z,3.80
2019-02-08T15:43:29.920Z,3.70
2019-02-08T15:46:01.869Z,3.60
2019-02-08T15:48:31.409Z,3.50
2019-02-08T15:51:00.930Z,3.50
2019-02-08T15:53:30.536Z,3.40
2019-02-08T15:56:09.726Z,3.30
2019-02-08T15:58:39.375Z,3.20
2019-02-08T16:01:11.074Z,3.20
2019-02-08T16:03:40.731Z,3.10
2019-02-08T16:06:10.398Z,3.00
2019-02-08T16:08:40.357Z,3.00
2019-02-08T16:11:09.887Z,2.90
2019-02-08T16:13:39.580Z,2.80
2019-02-08T16:16:09.671Z,2.70
2019-02-08T16:18:39.358Z,2.70
2019-02-08T16:21:09.168Z,2.60
2019-02-08T16:23:38.899Z,2.50
2019-02-08T16:26:08.922Z,2.50
2019-02-08T16:28:38.726Z,2.50
2019-02-08T16:31:08.453Z,2.40
2019-02-08T16:33:38.644Z,2.40
2019-02-08T16:36:08.462Z,2.30
2019-02-08T16:38:38.412Z,2.20
2019-02-08T16:41:08.191Z,2.10
2019-02-08T16:43:37.731Z,2.10
2019-02-08T16:46:07.361Z,2.00
2019-02-08T16:48:37.141Z,1.90
2019-02-08T16:51:07.598Z,1.90
2019-02-08T16:53:37.350Z,1.90
2019-02-08T16:56:09.089Z,1.80
2019-02-08T16:58:38.779Z,1.80
2019-02-08T17:01:08.648Z,1.80
2019-02-08T17:03:38.404Z,1.70
2019-02-08T17:06:08.120Z,1.60
2019-02-08T17:08:37.703Z,1.50
2019-02-08T17:11:07.394Z,1.50
2019-02-08T17:13:36.915Z,1.50
2019-02-08T17:16:07.317Z,1.40
2019-02-08T17:18:36.957Z,1.40
2019-02-08T17:21:06.541Z,1.40
2019-02-08T17:23:36.060Z,1.30
2019-02-08T17:26:05.740Z,1.30
2019-02-08T17:28:35.248Z,1.30
2019-02-08T17:31:04.941Z,1.30
2019-02-08T17:33:34.555Z,1.30
2019-02-08T17:36:04.490Z,1.30
2019-02-08T17:38:35.603Z,1.20
2019-02-08T17:41:05.946Z,1.20
2019-02-08T17:43:35.459Z,1.20
2019-02-08T17:46:06.353Z,1.10
2019-02-08T17:48:35.927Z,1.10
2019-02-08T17:51:05.707Z,1.00
2019-02-08T17:53:36.064Z,1.00
2019-02-08T17:56:06.071Z,1.00
2019-02-08T17:58:35.641Z,0.90
2019-02-08T18:01:06.203Z,0.90
2019-02-08T18:03:35.786Z,0.80
2019-02-08T18:06:05.866Z,0.80
2019-02-08T18:08:35.405Z,0.70
2019-02-08T18:11:05.215Z,0.70
2019-02-08T18:13:34.737Z,0.60
2019-02-08T18:16:04.359Z,0.50
2019-02-08T18:18:33.938Z,0.50
2019-02-08T18:21:06.357Z,0.40
2019-02-08T18:23:35.898Z,0.40
2019-02-08T18:26:05.506Z,0.40
2019-02-08T18:28:35.073Z,0.30
2019-02-08T18:31:05.084Z,0.30
2019-02-08T18:33:34.633Z,0.20
2019-02-08T18:36:04.760Z,0.20
2019-02-08T18:38:34.337Z,0.10
2019-02-08T18:41:04.109Z,0.10
2019-02-08T18:43:33.704Z,0.00
2019-02-08T18:46:03.233Z,0.00
2019-02-08T18:48:32.744Z,0.00
2019-02-08T18:51:03.751Z,-0.10
2019-02-08T18:53:33.353Z,-0.10
2019-02-08T18:56:02.938Z,-0.10
2019-02-08T18:58:32.491Z,-0.10
2019-02-08T19:01:02.322Z,-0.10
2019-02-08T19:03:31.844Z,-0.20
2019-02-08T19:06:01.543Z,-0.20
2019-02-08T19:08:31.078Z,-0.20
2019-02-08T19:11:00.628Z,-0.20
2019-02-08T19:13:30.490Z,-0.30
2019-02-08T19:16:00.158Z,-0.30
2019-02-08T19:18:29.777Z,-0.30
2019-02-08T19:20:59.480Z,-0.40
2019-02-08T19:23:29.321Z,-0.30
2019-02-08T19:25:58.949Z,-0.30
2019-02-08T19:28:30.884Z,-0.30
2019-02-08T19:31:00.742Z,-0.30
2019-02-08T19:33:30.278Z,-0.30
2019-02-08T19:35:59.804Z,-0.30
2019-02-08T19:38:29.364Z,-0.30
2019-02-08T19:41:00.699Z,-0.40
2019-02-08T19:43:30.223Z,-0.40
2019-02-08T19:46:01.219Z,-0.30
2019-02-08T19:48:30.780Z,-0.20
2019-02-08T19:51:00.475Z,-0.20
2019-02-08T19:53:30.099Z,-0.20
2019-02-08T19:56:01.761Z,-0.30
2019-02-08T19:58:34.639Z,-0.30
2019-02-08T20:01:02.728Z,-0.30
2019-02-08T20:03:32.392Z,-0.30
2019-02-08T20:06:01.969Z,-0.30
2019-02-08T20:08:31.647Z,-0.30
2019-02-08T20:11:01.240Z,-0.30
2019-02-08T20:13:30.929Z,-0.30
2019-02-08T20:16:00.480Z,-0.40
2019-02-08T20:18:30.435Z,-0.40
2019-02-08T20:21:00.935Z,-0.30
2019-02-08T20:23:30.515Z,-0.30
2019-02-08T20:26:00.272Z,-0.30
2019-02-08T20:28:29.992Z,-0.40
2019-02-08T20:30:59.978Z,-0.40
2019-02-08T20:33:29.510Z,-0.40
2019-02-08T20:36:00.194Z,-0.50
2019-02-08T20:38:30.825Z,-0.50
2019-02-08T20:41:00.486Z,-0.50
2019-02-08T20:43:30.064Z,-0.50
2019-02-08T20:45:59.759Z,-0.40
2019-02-08T20:48:29.321Z,-0.40
2019-02-08T20:50:58.850Z,-0.20
2019-02-08T20:53:28.529Z,-0.30
2019-02-08T20:55:58.068Z,-0.20
2019-02-08T20:58:29.273Z,-0.20
2019-02-08T21:01:00.036Z,-0.20
2019-02-08T21:03:29.641Z,-0.30
2019-02-08T21:05:59.603Z,-0.30
2019-02-08T21:11:24.807Z,-0.30
2019-02-08T21:13:54.546Z,-0.40
2019-02-08T21:16:24.061Z,-0.30
2019-02-08T21:18:53.781Z,-0.30
2019-02-08T21:21:23.345Z,-0.30
2019-02-08T21:23:52.883Z,-0.30
2019-02-08T21:26:22.513Z,-0.30
2019-02-08T21:28:58.124Z,-0.20
2019-02-08T21:31:23.237Z,-0.20
2019-02-08T21:33:52.768Z,-0.30
2019-02-08T21:36:22.412Z,-0.30
2019-02-08T21:38:52.036Z,-0.30
2019-02-08T21:41:21.630Z,-0.40
2019-02-08T21:43:51.134Z,-0.50
2019-02-08T21:46:20.651Z,-0.50
2019-02-08T21:48:50.225Z,-0.50
2019-02-08T21:51:19.749Z,-0.40
2019-02-08T21:53:49.242Z,-0.40
2019-02-08T21:56:18.801Z,-0.50
2019-02-08T21:58:48.339Z,-0.40
2019-02-08T22:01:17.943Z,-0.40
2019-02-08T22:03:47.882Z,-0.40
2019-02-08T22:06:17.394Z,-0.50
2019-02-08T22:08:47.279Z,-0.50
2019-02-08T22:11:16.836Z,-0.50
2019-02-08T22:13:46.489Z,-0.40
2019-02-08T22:16:15.982Z,-0.40
2019-02-08T22:18:45.547Z,-0.40
2019-02-08T22:21:15.302Z,-0.40
2019-02-08T22:23:44.824Z,-0.40
2019-02-08T22:26:14.380Z,-0.30
2019-02-08T22:28:43.898Z,-0.30
2019-02-08T22:31:13.471Z,-0.20
2019-02-08T22:33:43.127Z,-0.20
2019-02-08T22:36:12.622Z,-0.30
2019-02-08T22:38:43.828Z,-0.20
2019-02-08T22:41:13.340Z,-0.30
2019-02-08T22:43:43.040Z,-0.30
2019-02-08T22:46:12.568Z,-0.30
2019-02-08T22:48:42.200Z,-0.30
2019-02-08T22:51:11.811Z,-0.30
2019-02-08T22:53:41.440Z,-0.20
2019-02-08T22:56:11.095Z,-0.20
2019-02-08T22:58:40.780Z,-0.20
2019-02-08T23:01:31.742Z,-0.10
2019-02-08T23:04:03.708Z,-0.10
2019-02-08T23:06:33.617Z,-0.20
2019-02-08T23:09:04.418Z,-0.20
2019-02-08T23:11:34.143Z,-0.10
2019-02-08T23:14:04.095Z,-0.10
2019-02-08T23:16:33.658Z,-0.20
2019-02-08T23:19:03.452Z,-0.20
2019-02-08T23:21:32.986Z,-0.10
2019-02-08T23:24:02.631Z,-0.10
2019-02-08T23:26:32.138Z,-0.10
2019-02-08T23:29:01.637Z,-0.20
2019-02-08T23:31:31.286Z,-0.20
2019-02-08T23:34:00.787Z,-0.20
2019-02-08T23:36:30.716Z,-0.20
2019-02-08T23:39:02.356Z,-0.10
2019-02-08T23:41:31.863Z,0.00
2019-02-08T23:44:01.514Z,0.00
2019-02-08T23:46:30.993Z,0.00
2019-02-08T23:49:00.481Z,-0.10
2019-02-08T23:51:30.086Z,-0.10
2019-02-08T23:54:01.696Z,-0.10
2019-02-08T23:56:31.448Z,-0.10
2019-02-08T23:59:00.953Z,-0.10
